Time;durP1;ratioP1;P1;durP2;ratioP2;P2;SDS_P1;SDS_P2;PMS_P1;PMS_P2;Temp;Humidity;BMP_temperature;BMP_pressure;BME280_temperature;BME280_humidity;BME280_pressure;Samples;Min_cycle;Max_cycle;Signal;HPM_P1;HPM_P2
2022/03/21 00:01:20;;;;;;;16.42;10.25;;;;;;;0.83;65.64;100177.91;4187619;28;20424;-71
2022/03/21 00:03:24;;;;;;;17.10;10.00;;;;;;;0.88;65.96;100177.88;4189100;28;20048;-71
2022/03/21 00:05:25;;;;;;;18.77;10.25;;;;;;;0.92;66.03;100170.00;4188212;28;20093;-71
2022/03/21 00:07:25;;;;;;;19.05;9.93;;;;;;;0.95;65.60;100172.97;4186514;28;20111;-71
2022/03/21 00:09:26;;;;;;;16.60;10.23;;;;;;;0.94;64.16;100174.06;4188464;28;20427;-71
2022/03/21 00:11:26;;;;;;;20.95;10.93;;;;;;;0.89;63.88;100173.25;4188150;28;20607;-71
2022/03/21 00:13:27;;;;;;;17.70;9.85;;;;;;;0.86;64.39;100193.69;4189438;28;20506;-71
2022/03/21 00:15:29;;;;;;;17.13;10.15;;;;;;;0.80;64.79;100173.78;4187252;28;20044;-71
2022/03/21 00:17:29;;;;;;;17.03;9.93;;;;;;;0.79;65.01;100179.50;4185881;28;20037;-71
2022/03/21 00:19:30;;;;;;;17.38;9.55;;;;;;;0.80;65.22;100176.50;4187485;28;20330;-71
2022/03/21 00:21:30;;;;;;;17.63;9.95;;;;;;;0.78;64.05;100177.88;4186088;28;20043;-71
2022/03/21 00:23:31;;;;;;;16.02;9.63;;;;;;;0.71;63.62;100169.16;4188201;28;20052;-71
2022/03/21 00:25:32;;;;;;;18.95;10.05;;;;;;;0.66;64.74;100177.31;4188056;28;20041;-71
2022/03/21 00:27:33;;;;;;;16.27;10.15;;;;;;;0.60;64.90;100181.97;4187442;28;20048;-71
2022/03/21 00:29:33;;;;;;;18.23;11.10;;;;;;;0.57;64.72;100174.31;4186893;28;20044;-71
2022/03/21 00:31:35;;;;;;;16.73;9.95;;;;;;;0.54;65.52;100170.22;4187824;28;20438;-71
2022/03/21 00:33:36;;;;;;;15.38;9.40;;;;;;;0.55;65.50;100165.59;4188206;28;20040;-71
2022/03/21 00:35:37;;;;;;;17.08;10.23;;;;;;;0.51;65.80;100159.88;4187616;28;20101;-71
2022/03/21 00:37:38;;;;;;;17.15;9.73;;;;;;;0.55;66.51;100162.88;4184418;28;20048;-71
2022/03/21 00:39:39;;;;;;;17.27;10.07;;;;;;;0.58;66.21;100175.97;4192046;28;20346;-71
2022/03/21 00:41:40;;;;;;;20.40;11.23;;;;;;;0.56;65.76;100178.13;4191546;28;20045;-71
2022/03/21 00:43:40;;;;;;;15.82;9.40;;;;;;;0.52;64.58;100166.16;4189084;28;20052;-71
2022/03/21 00:45:41;;;;;;;18.23;10.20;;;;;;;0.45;64.79;100168.31;4196433;28;20462;-71
2022/03/21 00:47:42;;;;;;;16.20;9.73;;;;;;;0.43;64.67;100170.50;4186888;28;20483;-71
2022/03/21 00:49:43;;;;;;;15.98;9.02;;;;;;;0.41;65.58;100173.47;4193325;28;20037;-71
2022/03/21 00:51:44;;;;;;;16.10;9.00;;;;;;;0.38;64.82;100176.75;4188401;28;20135;-71
2022/03/21 00:53:44;;;;;;;14.18;9.35;;;;;;;0.37;65.03;100174.28;4191588;28;20274;-71
2022/03/21 00:55:46;;;;;;;16.90;9.52;;;;;;;0.37;65.33;100168.84;4195002;28;20174;-71
2022/03/21 00:57:46;;;;;;;14.82;9.77;;;;;;;0.33;65.23;100167.72;4191563;28;20051;-71
2022/03/21 00:59:47;;;;;;;18.42;9.52;;;;;;;0.34;65.34;100166.69;4193716;28;20496;-71
2022/03/21 01:01:47;;;;;;;16.42;9.40;;;;;;;0.30;65.98;100162.84;4199309;28;20286;-71
2022/03/21 01:03:47;;;;;;;17.38;10.75;;;;;;;0.34;66.93;100169.41;4197487;28;20106;-71
2022/03/21 01:05:48;;;;;;;17.20;9.45;;;;;;;0.34;67.04;100174.84;4192233;28;20044;-71
2022/03/21 01:07:49;;;;;;;18.13;10.27;;;;;;;0.35;66.80;100169.13;4194187;28;20041;-71
2022/03/21 01:09:49;;;;;;;16.90;10.23;;;;;;;0.35;66.87;100173.75;4195653;28;20043;-71
2022/03/21 01:11:49;;;;;;;18.08;10.52;;;;;;;0.33;66.19;100168.56;4192315;28;20547;-71
2022/03/21 01:13:50;;;;;;;15.75;9.35;;;;;;;0.31;66.03;100167.19;4190502;28;20127;-71
2022/03/21 01:15:51;;;;;;;14.07;8.75;;;;;;;0.29;67.20;100170.19;4197045;28;20064;-71
2022/03/21 01:17:52;;;;;;;14.90;9.07;;;;;;;0.28;66.08;100165.84;4195216;28;20504;-71
2022/03/21 01:19:53;;;;;;;15.55;9.77;;;;;;;0.27;65.84;100167.75;4196421;28;20109;-71
2022/03/21 01:21:53;;;;;;;22.38;10.38;;;;;;;0.21;65.65;100168.00;4201402;28;20454;-71
2022/03/21 01:23:54;;;;;;;19.58;9.88;;;;;;;0.18;66.00;100166.63;4197136;28;20084;-71
2022/03/21 01:25:54;;;;;;;20.33;10.10;;;;;;;0.16;66.31;100171.50;4190342;28;20302;-71
2022/03/21 01:27:54;;;;;;;15.27;9.73;;;;;;;0.14;66.03;100167.44;4192065;28;20327;-71
2022/03/21 01:29:55;;;;;;;16.20;10.15;;;;;;;0.13;66.30;100169.34;4199357;28;20044;-71
2022/03/21 01:31:56;;;;;;;17.10;9.60;;;;;;;0.09;66.42;100162.00;4195599;28;20127;-71
2022/03/21 01:33:56;;;;;;;17.95;10.02;;;;;;;0.12;66.62;100166.88;4191718;28;20094;-71
2022/03/21 01:35:57;;;;;;;16.42;10.00;;;;;;;0.15;66.81;100160.91;4194700;28;20052;-71
2022/03/21 01:37:57;;;;;;;16.98;10.25;;;;;;;0.18;67.07;100169.34;4195108;28;20044;-71
2022/03/21 01:39:58;;;;;;;18.15;9.43;;;;;;;0.22;66.62;100162.28;4197327;28;20048;-71
2022/03/21 01:41:58;;;;;;;15.18;10.32;;;;;;;0.23;66.43;100157.66;4193169;28;20045;-71
2022/03/21 01:44:03;;;;;;;17.77;10.32;;;;;;;0.21;66.21;100159.81;4197252;28;20052;-71
2022/03/21 01:46:03;;;;;;;17.98;9.50;;;;;;;0.22;66.48;100164.19;4197717;28;20063;-71
2022/03/21 01:48:04;;;;;;;16.20;10.13;;;;;;;0.25;66.35;100169.09;4196896;28;20032;-71
2022/03/21 01:50:06;;;;;;;17.17;10.00;;;;;;;0.26;66.52;100162.56;4197303;28;20384;-71
2022/03/21 01:52:06;;;;;;;15.45;9.80;;;;;;;0.22;66.38;100165.00;4196653;28;20035;-71
2022/03/21 01:56:27;;;;;;;19.05;10.88;;;;;;;0.16;66.91;100167.97;4190537;28;20376;-71
2022/03/21 01:58:30;;;;;;;15.00;9.50;;;;;;;0.15;66.93;100158.16;4197326;28;20036;-71
2022/03/21 02:00:30;;;;;;;15.95;9.73;;;;;;;0.19;66.77;100159.28;4190131;28;20037;-71
2022/03/21 02:02:32;;;;;;;20.70;11.13;;;;;;;0.20;66.90;100164.44;4194862;28;20141;-71
2022/03/21 02:04:35;;;;;;;17.30;9.85;;;;;;;0.17;66.99;100165.00;4195229;28;20613;-71
2022/03/21 02:06:36;;;;;;;18.00;10.32;;;;;;;0.21;66.68;100162.56;4195839;28;20051;-71
2022/03/21 02:08:36;;;;;;;16.98;10.18;;;;;;;0.23;66.51;100160.38;4196462;28;20044;-71
2022/03/21 02:10:37;;;;;;;18.00;11.13;;;;;;;0.25;66.57;100156.31;4187307;28;20032;-71
2022/03/21 02:12:37;;;;;;;16.80;9.55;;;;;;;0.26;66.78;100163.38;4195073;28;20257;-70
2022/03/21 02:14:39;;;;;;;16.95;10.05;;;;;;;0.26;66.46;100157.13;4196052;28;20511;-71
2022/03/21 02:16:40;;;;;;;14.20;8.90;;;;;;;0.26;66.55;100157.94;4192820;28;20048;-71
2022/03/21 02:18:42;;;;;;;17.38;10.30;;;;;;;0.27;66.59;100156.84;4195735;28;20559;-71
2022/03/21 02:20:44;;;;;;;14.00;9.00;;;;;;;0.28;66.24;100163.94;4195289;28;20041;-71
2022/03/21 02:22:59;;;;;;;19.63;10.52;;;;;;;0.26;66.51;100157.13;4197572;28;20050;-71
2022/03/21 02:25:11;;;;;;;15.98;9.25;;;;;;;0.23;66.40;100152.19;4193069;28;20158;-71
2022/03/21 02:27:12;;;;;;;17.58;9.90;;;;;;;0.22;67.14;100158.75;4189629;28;20048;-71
2022/03/21 02:29:16;;;;;;;18.23;9.85;;;;;;;0.16;67.17;100160.63;4200118;28;20131;-71
2022/03/21 02:31:17;;;;;;;19.05;11.23;;;;;;;0.14;67.72;100151.09;4192570;28;20039;-71
2022/03/21 02:33:18;;;;;;;15.98;9.85;;;;;;;0.08;67.32;100152.97;4192835;28;20044;-71
2022/03/21 02:35:20;;;;;;;20.30;10.30;;;;;;;0.03;67.04;100163.88;4200511;28;20063;-71
2022/03/21 02:37:22;;;;;;;17.17;9.90;;;;;;;-0.02;67.36;100161.13;4191648;28;20193;-71
2022/03/21 02:39:23;;;;;;;14.25;9.82;;;;;;;-0.06;68.13;100154.59;4195677;28;20121;-71
2022/03/21 02:41:23;;;;;;;19.45;10.40;;;;;;;-0.08;68.17;100162.22;4194656;28;20044;-71
2022/03/21 02:43:24;;;;;;;18.88;10.70;;;;;;;-0.10;67.65;100159.72;4197662;28;20040;-71
2022/03/21 02:45:25;;;;;;;16.73;10.35;;;;;;;-0.12;67.68;100159.19;4197908;28;20430;-71
2022/03/21 02:47:25;;;;;;;20.95;11.05;;;;;;;-0.12;68.17;100156.47;4195641;28;20109;-71
2022/03/21 02:49:25;;;;;;;19.05;9.95;;;;;;;-0.10;68.10;100162.44;4194867;28;20052;-71
2022/03/21 02:51:29;;;;;;;20.85;10.80;;;;;;;-0.13;67.56;100165.72;4193280;28;20503;-71
2022/03/21 02:53:32;;;;;;;14.65;8.98;;;;;;;-0.15;67.94;100161.63;4194761;28;20407;-71
2022/03/21 02:55:32;;;;;;;;;;;;;;;-0.16;67.88;100163.53;4196002;28;20380;-71
2022/03/21 02:57:33;;;;;;;16.60;10.13;;;;;;;-0.21;68.12;100162.69;4193745;28;19911;-71
2022/03/21 02:59:33;;;;;;;18.90;10.00;;;;;;;-0.18;67.92;100160.25;4192562;28;20036;-71
2022/03/21 03:01:33;;;;;;;17.27;9.35;;;;;;;-0.18;67.68;100160.25;4193956;28;20131;-71
2022/03/21 03:03:34;;;;;;;17.00;9.70;;;;;;;-0.20;67.45;100165.13;4190285;28;20452;-71
2022/03/21 03:05:34;;;;;;;15.18;9.73;;;;;;;-0.21;67.93;100163.50;4193974;28;20036;-71
2022/03/21 03:07:35;;;;;;;17.63;9.07;;;;;;;-0.17;68.34;100163.78;4195477;28;20036;-71
2022/03/21 03:09:35;;;;;;;16.60;8.95;;;;;;;-0.14;68.69;100174.16;4194138;28;20186;-71
2022/03/21 03:11:36;;;;;;;18.95;9.48;;;;;;;-0.20;67.42;100169.75;4191508;28;20764;-71
2022/03/21 03:13:37;;;;;;;16.20;10.38;;;;;;;-0.21;67.94;100168.13;4199212;28;20052;-71
2022/03/21 03:15:38;;;;;;;16.23;9.35;;;;;;;-0.25;67.72;100167.81;4194077;28;20052;-71
2022/03/21 03:17:38;;;;;;;13.70;9.13;;;;;;;-0.29;67.73;100170.28;4194648;28;20425;-71
2022/03/21 03:19:38;;;;;;;19.08;9.48;;;;;;;-0.32;67.82;100170.00;4192482;28;20064;-71
2022/03/21 03:21:45;;;;;;;15.45;9.85;;;;;;;-0.37;67.82;100168.06;4194493;28;20111;-71
2022/03/21 03:23:48;;;;;;;14.32;8.93;;;;;;;-0.37;67.96;100175.41;4195067;28;20626;-70
2022/03/21 03:25:56;;;;;;;17.50;9.57;;;;;;;-0.42;68.67;100176.19;4195083;28;20097;-70
2022/03/21 03:27:57;;;;;;;15.02;9.80;;;;;;;-0.43;69.19;100179.97;4193889;28;20042;-71
2022/03/21 03:29:59;;;;;;;18.35;10.60;;;;;;;-0.41;69.12;100179.75;4195506;28;20123;-71
2022/03/21 03:32:03;;;;;;;17.60;9.93;;;;;;;-0.41;69.08;100180.56;4194248;28;20045;-71
2022/03/21 03:34:04;;;;;;;18.08;9.45;;;;;;;-0.41;68.60;100177.03;4192716;28;20033;-71
2022/03/21 03:36:05;;;;;;;15.80;9.70;;;;;;;-0.44;67.86;100175.63;4194842;28;20035;-71
2022/03/21 03:38:06;;;;;;;18.33;9.18;;;;;;;-0.44;68.81;100169.38;4191541;28;20063;-71
2022/03/21 03:40:06;;;;;;;15.52;9.43;;;;;;;-0.45;68.56;100176.72;4193757;28;20024;-71
2022/03/21 03:42:07;;;;;;;18.92;9.15;;;;;;;-0.47;68.49;100175.34;4192504;28;20090;-71
2022/03/21 03:44:07;;;;;;;17.75;9.63;;;;;;;-0.52;67.82;100169.88;4194895;28;20040;-71
2022/03/21 03:46:07;;;;;;;16.83;10.02;;;;;;;-0.59;67.31;100172.81;4190545;28;20039;-71
2022/03/21 03:48:09;;;;;;;20.45;10.40;;;;;;;-0.70;68.16;100174.69;4192682;28;20491;-71
2022/03/21 03:50:09;;;;;;;15.30;9.63;;;;;;;-0.78;68.37;100172.44;4189763;28;20460;-71
2022/03/21 03:52:10;;;;;;;19.02;10.55;;;;;;;-0.91;68.88;100178.31;4185755;28;20036;-71
2022/03/21 03:54:10;;;;;;;17.38;9.60;;;;;;;-1.02;69.97;100174.72;4189400;28;20036;-71
2022/03/21 03:56:10;;;;;;;21.10;10.00;;;;;;;-1.09;70.46;100176.84;4187308;28;20068;-71
2022/03/21 03:58:11;;;;;;;20.48;10.93;;;;;;;-1.21;71.31;100177.03;4187474;28;20075;-71
2022/03/21 04:00:14;;;;;;;20.20;10.00;;;;;;;-1.31;72.37;100179.66;4187148;28;20024;-71
2022/03/21 04:02:14;;;;;;;18.27;11.10;;;;;;;-1.39;73.62;100182.03;4189960;28;20453;-71
2022/03/21 04:04:14;;;;;;;22.33;11.05;;;;;;;-1.47;73.93;100183.31;4190250;28;20035;-71
2022/03/21 04:06:22;;;;;;;22.75;10.90;;;;;;;-1.57;74.70;100184.06;4188696;28;20033;-71
2022/03/21 04:08:24;;;;;;;20.63;11.88;;;;;;;-1.65;75.29;100178.25;4188411;28;20139;-71
2022/03/21 04:10:24;;;;;;;20.70;11.10;;;;;;;-1.72;75.81;100189.31;4185982;28;20115;-71
2022/03/21 04:12:25;;;;;;;20.15;10.63;;;;;;;-1.79;75.80;100178.66;4191148;28;20062;-71
2022/03/21 04:14:25;;;;;;;18.48;10.55;;;;;;;-1.80;76.53;100179.75;4189391;28;20037;-71
2022/03/21 04:16:26;;;;;;;22.60;11.43;;;;;;;-1.81;76.21;100174.56;4189673;28;20426;-71
2022/03/21 04:18:26;;;;;;;23.35;13.10;;;;;;;-1.82;76.49;100183.75;4187482;28;20484;-71
2022/03/21 04:20:29;;;;;;;26.85;12.77;;;;;;;-1.84;76.40;100177.78;4187772;28;20056;-71
2022/03/21 04:22:29;;;;;;;24.65;12.05;;;;;;;-1.88;76.68;100185.63;4192359;28;20037;-71
2022/03/21 04:24:30;;;;;;;17.80;10.00;;;;;;;-1.89;78.68;100181.28;4190350;28;20039;-71
2022/03/21 04:26:30;;;;;;;26.60;12.48;;;;;;;-1.96;79.23;100185.25;4192430;28;20036;-71
2022/03/21 04:28:30;;;;;;;23.98;13.27;;;;;;;-2.05;79.30;100188.41;4189019;28;20040;-71
2022/03/21 04:30:31;;;;;;;25.25;12.95;;;;;;;-2.09;78.82;100189.16;4190812;28;20048;-71
2022/03/21 04:32:31;;;;;;;23.77;13.45;;;;;;;-2.13;78.90;100182.63;4188548;28;20357;-71
2022/03/21 04:34:31;;;;;;;26.60;13.85;;;;;;;-2.17;79.10;100179.56;4190589;28;20115;-71
2022/03/21 04:36:31;;;;;;;22.48;12.32;;;;;;;-2.14;78.78;100184.50;4191204;28;20079;-71
2022/03/21 04:38:32;;;;;;;27.30;13.48;;;;;;;-2.16;79.14;100192.06;4194087;28;20058;-71
2022/03/21 04:40:32;;;;;;;23.30;12.35;;;;;;;-2.20;79.82;100184.69;4192524;28;20524;-71
2022/03/21 04:42:34;;;;;;;27.08;13.13;;;;;;;-2.22;80.09;100192.28;4195690;28;20143;-71
2022/03/21 04:44:34;;;;;;;27.17;14.07;;;;;;;-2.23;80.12;100190.59;4194770;28;20402;-71
2022/03/21 04:46:35;;;;;;;26.38;13.60;;;;;;;-2.25;80.36;100196.28;4196870;28;20051;-71
2022/03/21 04:48:35;;;;;;;31.80;14.63;;;;;;;-2.28;80.47;100192.19;4190373;28;20085;-71
2022/03/21 04:50:37;;;;;;;25.77;13.63;;;;;;;-2.31;81.33;100195.44;4193086;28;20139;-71
2022/03/21 04:52:37;;;;;;;30.17;15.18;;;;;;;-2.31;81.54;100203.56;4191443;28;20032;-71
2022/03/21 04:54:41;;;;;;;23.02;12.65;;;;;;;-2.29;81.55;100204.13;4194593;28;20050;-70
2022/03/21 04:56:42;;;;;;;22.70;12.15;;;;;;;-2.33;82.26;100199.44;4193775;28;20472;-71
2022/03/21 04:58:42;;;;;;;24.70;12.70;;;;;;;-2.37;82.02;100204.56;4192758;28;20060;-71
2022/03/21 05:00:44;;;;;;;20.02;11.85;;;;;;;-2.47;82.38;100203.59;4195171;28;20036;-71
2022/03/21 05:02:44;;;;;;;24.13;13.57;;;;;;;-2.51;82.40;100197.03;4195926;28;20350;-71
2022/03/21 05:04:45;;;;;;;24.50;12.90;;;;;;;-2.53;81.92;100205.41;4191411;28;20123;-71
2022/03/21 05:06:48;;;;;;;28.02;13.48;;;;;;;-2.55;81.90;100205.66;4194292;28;20036;-70
2022/03/21 05:08:50;;;;;;;23.52;12.45;;;;;;;-2.59;81.65;100201.81;4193887;28;20535;-71
2022/03/21 05:10:51;;;;;;;30.80;14.93;;;;;;;-2.56;82.10;100204.03;4192115;28;20087;-71
2022/03/21 05:12:51;;;;;;;27.13;15.20;;;;;;;-2.57;83.32;100207.78;4192300;28;20049;-71
2022/03/21 05:14:51;;;;;;;21.05;11.82;;;;;;;-2.58;83.60;100208.88;4195884;28;20109;-71
2022/03/21 05:16:52;;;;;;;24.75;12.85;;;;;;;-2.61;83.48;100203.94;4193049;28;20045;-71
2022/03/21 05:18:52;;;;;;;20.33;10.93;;;;;;;-2.66;83.55;100209.28;4193636;28;20123;-71
2022/03/21 05:20:53;;;;;;;25.70;13.73;;;;;;;-2.72;83.23;100217.63;4191333;28;20044;-71
2022/03/21 05:32:08;;;;;;;25.70;12.82;;;;;;;-2.68;82.38;100214.13;4194017;28;20055;-71
2022/03/21 05:36:28;;;;;;;22.08;11.48;;;;;;;-2.66;82.67;100222.00;4197335;28;20058;-71
2022/03/21 05:38:30;;;;;;;20.23;12.18;;;;;;;-2.65;82.23;100216.38;4197534;28;20214;-71
2022/03/21 05:40:34;;;;;;;22.47;12.13;;;;;;;-2.57;81.49;100223.22;4195509;28;20638;-71
2022/03/21 05:42:34;;;;;;;21.75;12.10;;;;;;;-2.55;81.86;100215.69;4190517;28;20773;-71
2022/03/21 05:44:34;;;;;;;23.00;12.75;;;;;;;-2.57;81.48;100220.53;4196161;28;20028;-70
2022/03/21 05:46:35;;;;;;;19.88;11.95;;;;;;;-2.57;82.02;100226.75;4196200;28;20480;-71
2022/03/21 05:48:52;;;;;;;21.30;12.32;;;;;;;-2.56;82.03;100219.47;4190926;28;20135;-71
2022/03/21 05:50:52;;;;;;;24.00;13.07;;;;;;;-2.55;82.26;100224.63;4197384;28;20135;-71
2022/03/21 05:52:53;;;;;;;25.48;15.00;;;;;;;-2.51;81.83;100218.72;4199038;28;20090;-71
2022/03/21 05:54:53;;;;;;;22.10;12.40;;;;;;;-2.45;82.49;100229.38;4193952;28;20476;-71
2022/03/21 05:56:53;;;;;;;22.35;12.65;;;;;;;-2.44;82.08;100231.03;4196217;28;20131;-71
2022/03/21 05:58:56;;;;;;;22.58;12.18;;;;;;;-2.41;82.27;100235.94;4196744;28;20438;-71
2022/03/21 06:00:57;;;;;;;21.25;11.80;;;;;;;-2.36;81.75;100236.00;4201919;28;20052;-71
2022/03/21 06:02:57;;;;;;;26.08;12.32;;;;;;;-2.32;81.33;100244.44;4195099;28;20067;-71
2022/03/21 06:05:00;;;;;;;22.10;11.55;;;;;;;-2.28;80.38;100248.31;4191338;28;20436;-71
2022/03/21 06:07:01;;;;;;;21.83;12.45;;;;;;;-2.21;80.97;100253.56;4194708;28;20052;-71
2022/03/21 06:09:02;;;;;;;21.98;12.65;;;;;;;-2.13;80.75;100242.28;4195915;28;20045;-71
2022/03/21 06:11:08;;;;;;;21.45;11.68;;;;;;;-2.13;80.16;100248.53;4198115;28;20036;-71
2022/03/21 06:13:08;;;;;;;24.83;11.90;;;;;;;-2.08;80.08;100247.75;4201525;28;20122;-71
2022/03/21 06:15:09;;;;;;;19.70;10.88;;;;;;;-2.02;79.40;100246.75;4189825;28;20082;-71
2022/03/21 06:17:10;;;;;;;20.25;11.77;;;;;;;-1.97;79.43;100249.53;4196497;28;20040;-71
2022/03/21 06:19:10;;;;;;;21.77;12.00;;;;;;;-1.95;79.33;100247.38;4196746;28;20040;-71
2022/03/21 06:21:11;;;;;;;21.77;12.68;;;;;;;-1.89;79.41;100251.81;4195692;28;20052;-71
2022/03/21 06:23:12;;;;;;;19.23;11.40;;;;;;;-1.85;78.96;100255.66;4197593;28;20086;-71
2022/03/21 06:25:12;;;;;;;25.23;12.80;;;;;;;-1.81;79.28;100247.84;4195737;28;20048;-71
2022/03/21 06:27:13;;;;;;;22.15;11.85;;;;;;;-1.74;79.68;100254.72;4200484;28;20036;-71
2022/03/21 06:29:13;;;;;;;23.10;12.32;;;;;;;-1.74;79.08;100252.00;4195290;28;20492;-71
2022/03/21 06:31:14;;;;;;;20.83;12.05;;;;;;;-1.73;79.51;100250.91;4192587;28;20121;-71
2022/03/21 06:33:14;;;;;;;22.80;12.38;;;;;;;-1.72;79.75;100263.41;4191531;28;20462;-71
2022/03/21 06:35:15;;;;;;;21.77;12.35;;;;;;;-1.68;79.18;100269.13;4193427;28;20055;-70
2022/03/21 06:37:15;;;;;;;28.35;12.40;;;;;;;-1.65;80.04;100262.41;4190137;28;20128;-72
2022/03/21 06:39:16;;;;;;;23.42;13.00;;;;;;;-1.61;80.92;100277.09;4193969;28;20484;-71
2022/03/21 06:41:17;;;;;;;22.65;11.80;;;;;;;-1.59;81.25;100278.47;4191805;28;20063;-71
2022/03/21 06:43:19;;;;;;;22.88;12.32;;;;;;;-1.55;81.38;100282.31;4194767;28;20455;-71
2022/03/21 06:45:19;;;;;;;24.77;13.27;;;;;;;-1.52;80.85;100276.38;4192930;28;20180;-72
2022/03/21 06:47:20;;;;;;;21.10;12.90;;;;;;;-1.42;81.00;100284.63;4191505;28;20076;-72
2022/03/21 06:49:23;;;;;;;21.73;14.02;;;;;;;-1.35;80.91;100294.47;4192411;28;20052;-72
2022/03/21 06:51:24;;;;;;;23.13;11.93;;;;;;;-1.27;80.37;100283.16;4192421;28;20039;-72
2022/03/21 06:53:24;;;;;;;25.00;13.35;;;;;;;-1.20;80.02;100295.47;4193696;28;20032;-72
2022/03/21 06:55:24;;;;;;;24.33;13.63;;;;;;;-1.11;79.37;100282.22;4192186;28;20058;-72
2022/03/21 06:57:25;;;;;;;21.42;12.05;;;;;;;-1.03;79.08;100289.91;4191370;28;20102;-72
2022/03/21 06:59:25;;;;;;;22.30;12.95;;;;;;;-0.95;79.52;100296.78;4195817;28;20276;-72
2022/03/21 07:01:25;;;;;;;24.75;13.00;;;;;;;-0.88;78.92;100298.22;4186521;28;20178;-72
2022/03/21 07:03:26;;;;;;;26.25;14.90;;;;;;;-0.83;78.30;100300.13;4193431;28;20082;-71
2022/03/21 07:05:28;;;;;;;27.00;14.18;;;;;;;-0.77;77.67;100295.56;4190617;28;20498;-71
2022/03/21 07:07:29;;;;;;;28.93;15.73;;;;;;;-0.68;77.41;100302.16;4197856;28;20048;-72
2022/03/21 07:09:29;;;;;;;26.08;15.10;;;;;;;-0.65;77.12;100298.94;4194023;28;20263;-72
2022/03/21 07:11:29;;;;;;;22.98;13.63;;;;;;;-0.62;76.73;100304.69;4199281;28;20036;-72
2022/03/21 07:13:30;;;;;;;25.45;13.60;;;;;;;-0.53;76.05;100304.19;4195015;28;20054;-72
2022/03/21 07:15:31;;;;;;;22.83;12.35;;;;;;;-0.48;75.27;100305.06;4194039;28;20052;-72
2022/03/21 07:17:31;;;;;;;28.08;13.95;;;;;;;-0.43;75.12;100294.19;4189967;28;20123;-72
2022/03/21 07:19:31;;;;;;;23.52;14.10;;;;;;;-0.35;74.66;100301.06;4189404;28;20038;-72
2022/03/21 07:21:32;;;;;;;22.42;12.75;;;;;;;-0.29;73.90;100295.41;4189109;28;20068;-72
2022/03/21 07:23:32;;;;;;;21.48;13.45;;;;;;;-0.22;73.72;100302.50;4189162;28;20049;-72
2022/03/21 07:25:33;;;;;;;22.65;11.43;;;;;;;-0.16;73.62;100302.28;4186859;28;20036;-72
2022/03/21 07:27:33;;;;;;;23.60;12.00;;;;;;;-0.06;73.31;100312.41;4186159;28;20480;-72
2022/03/21 07:29:34;;;;;;;36.95;18.30;;;;;;;0.03;73.34;100310.81;4191106;28;20040;-72
2022/03/21 07:31:34;;;;;;;36.03;18.20;;;;;;;0.10;72.87;100299.72;4188870;28;20202;-72
2022/03/21 07:33:35;;;;;;;33.85;16.15;;;;;;;0.14;73.00;100300.81;4188019;28;20515;-72
2022/03/21 07:35:36;;;;;;;26.23;14.48;;;;;;;0.17;73.12;100295.66;4187228;28;20059;-72
2022/03/21 07:37:47;;;;;;;30.48;13.85;;;;;;;0.32;71.31;100308.50;4192354;28;20122;-71
2022/03/21 07:39:47;;;;;;;24.35;14.27;;;;;;;0.40;72.12;100304.44;4190240;28;20051;-72
2022/03/21 07:41:48;;;;;;;22.45;12.80;;;;;;;0.50;71.55;100302.59;4186685;28;20376;-72
2022/03/21 07:43:48;;;;;;;21.13;12.45;;;;;;;0.53;71.38;100302.06;4188466;28;20851;-71
2022/03/21 07:48:08;;;;;;;24.25;11.93;;;;;;;0.59;70.87;100307.53;4188652;28;20039;-72
2022/03/21 07:50:09;;;;;;;22.05;12.23;;;;;;;0.63;70.84;100303.16;4187082;28;20545;-72
2022/03/21 07:52:09;;;;;;;25.88;12.93;;;;;;;0.69;71.45;100307.56;4189410;28;20028;-72
2022/03/21 07:54:11;;;;;;;19.42;12.00;;;;;;;0.74;71.03;100310.28;4186760;28;20314;-72
2022/03/21 07:56:12;;;;;;;26.20;14.13;;;;;;;0.81;70.93;100313.56;4189676;28;20553;-72
2022/03/21 07:58:12;;;;;;;21.30;12.80;;;;;;;0.87;71.48;100308.97;4186615;28;20025;-72
2022/03/21 08:00:14;;;;;;;20.63;13.10;;;;;;;0.94;71.30;100304.06;4186386;28;20447;-72
2022/03/21 08:02:15;;;;;;;22.10;12.63;;;;;;;1.10;71.67;100314.72;4186251;28;20040;-72
2022/03/21 08:04:17;;;;;;;23.50;14.38;;;;;;;1.18;71.17;100305.19;4185957;28;20256;-72
2022/03/21 08:06:18;;;;;;;21.27;12.73;;;;;;;1.26;70.71;100315.56;4189479;28;20144;-72
2022/03/21 08:08:19;;;;;;;21.30;12.82;;;;;;;1.34;70.33;100311.47;4185801;28;20287;-71
2022/03/21 08:10:20;;;;;;;23.42;13.75;;;;;;;1.37;69.86;100310.91;4188182;28;20026;-71
2022/03/21 08:12:20;;;;;;;20.40;12.40;;;;;;;1.47;69.47;100319.09;4188143;28;20304;-71
2022/03/21 08:14:21;;;;;;;19.85;13.07;;;;;;;1.53;69.00;100319.91;4190009;28;20049;-72
2022/03/21 08:16:22;;;;;;;22.80;13.85;;;;;;;1.59;69.12;100316.94;4186617;28;20045;-72
2022/03/21 08:18:23;;;;;;;20.75;13.88;;;;;;;1.65;68.63;100315.00;4192646;28;20040;-71
2022/03/21 08:20:26;;;;;;;20.73;12.77;;;;;;;1.70;68.24;100312.25;4195421;28;20110;-71
2022/03/21 08:22:27;;;;;;;22.02;12.85;;;;;;;1.80;67.63;100314.16;4192973;28;20057;-71
2022/03/21 08:24:33;;;;;;;22.40;12.82;;;;;;;1.86;67.77;100313.88;4188951;28;20051;-71
2022/03/21 08:26:35;;;;;;;19.33;12.10;;;;;;;1.96;68.09;100315.78;4194077;28;20036;-71
2022/03/21 08:28:35;;;;;;;28.15;13.18;;;;;;;2.10;67.92;100324.22;4193236;28;20032;-71
2022/03/21 08:30:37;;;;;;;24.58;13.57;;;;;;;2.22;67.80;100314.59;4192480;28;20064;-71
2022/03/21 08:32:37;;;;;;;21.57;13.03;;;;;;;2.37;67.33;100326.56;4193524;28;20128;-71
2022/03/21 08:34:38;;;;;;;23.23;13.35;;;;;;;2.43;66.96;100312.63;4195838;28;20055;-71
2022/03/21 08:36:38;;;;;;;19.67;12.95;;;;;;;2.50;65.94;100317.78;4189503;28;20163;-71
2022/03/21 08:38:39;;;;;;;22.80;13.38;;;;;;;2.57;66.21;100323.78;4194659;28;20033;-71
2022/03/21 08:40:40;;;;;;;19.25;12.32;;;;;;;2.63;66.40;100330.84;4192979;28;20357;-71
2022/03/21 08:42:41;;;;;;;18.30;11.65;;;;;;;2.69;66.15;100326.97;4194795;28;20691;-71
2022/03/21 08:44:42;;;;;;;19.50;11.77;;;;;;;2.74;66.38;100321.50;4192415;28;20132;-71
2022/03/21 08:46:42;;;;;;;21.20;11.73;;;;;;;2.91;65.90;100332.06;4192214;28;20523;-71
2022/03/21 08:51:01;;;;;;;21.27;12.60;;;;;;;3.13;65.10;100328.09;4190676;28;20198;-71
2022/03/21 08:53:01;;;;;;;20.35;12.25;;;;;;;3.19;64.82;100333.25;4190494;28;20041;-71
2022/03/21 08:55:07;;;;;;;18.70;11.57;;;;;;;3.27;65.08;100331.84;4130811;28;20416;-72
2022/03/21 08:57:07;;;;;;;20.15;12.68;;;;;;;3.33;64.88;100327.97;4190790;28;20044;-71
2022/03/21 08:59:08;;;;;;;18.67;12.02;;;;;;;3.39;64.50;100332.28;4194117;28;20054;-71
2022/03/21 09:01:08;;;;;;;29.35;12.25;;;;;;;3.48;61.76;100327.84;4193534;28;20048;-71
2022/03/21 09:03:09;;;;;;;21.92;12.30;;;;;;;3.57;62.64;100319.84;4191020;28;20364;-71
2022/03/21 09:05:12;;;;;;;20.88;11.82;;;;;;;3.63;62.10;100330.44;4193643;28;20072;-71
2022/03/21 09:07:15;;;;;;;17.52;11.93;;;;;;;3.70;61.52;100318.34;4194022;28;20043;-71
2022/03/21 09:09:18;;;;;;;21.13;11.73;;;;;;;3.77;61.04;100316.09;4192046;28;20041;-71
2022/03/21 09:11:18;;;;;;;20.17;12.45;;;;;;;3.88;61.60;100309.41;4194153;28;20047;-71
2022/03/21 09:13:19;;;;;;;18.77;11.63;;;;;;;3.95;61.45;100321.66;4194990;28;20044;-71
2022/03/21 09:15:20;;;;;;;20.73;12.82;;;;;;;4.06;61.97;100318.84;4191549;28;20165;-71
2022/03/21 09:17:20;;;;;;;22.23;13.43;;;;;;;4.10;62.01;100315.22;4194151;28;20036;-71
2022/03/21 09:19:22;;;;;;;20.90;13.15;;;;;;;4.19;61.15;100312.66;4193722;28;20055;-72
2022/03/21 09:21:23;;;;;;;21.02;12.95;;;;;;;4.25;58.98;100306.00;4197016;28;20231;-71
2022/03/21 09:23:23;;;;;;;20.92;12.27;;;;;;;4.30;59.47;100313.34;4197317;28;20048;-71
2022/03/21 09:25:23;;;;;;;19.58;12.85;;;;;;;4.39;60.44;100317.09;4199488;28;20042;-72
2022/03/21 09:27:24;;;;;;;25.38;13.57;;;;;;;4.45;60.78;100310.44;4196381;28;20050;-71
2022/03/21 09:29:25;;;;;;;22.23;13.90;;;;;;;4.50;58.22;100304.88;4196708;28;20443;-71
2022/03/21 09:31:32;;;;;;;24.08;15.07;;;;;;;4.59;59.49;100305.06;4193944;28;20135;-71
2022/03/21 09:33:36;;;;;;;24.50;13.75;;;;;;;4.65;59.28;100307.44;4197342;28;20075;-72